Time;durP1;ratioP1;P1;durP2;ratioP2;P2;SDS_P1;SDS_P2;PMS_P1;PMS_P2;Temp;Humidity;BMP_temperature;BMP_pressure;BME280_temperature;BME280_humidity;BME280_pressure;Samples;Min_cycle;Max_cycle;Signal;HPM_P1;HPM_P2
2024/02/17 00:02:22;;;;;;;;;;;;;;;;;;5011331;28;19957;-87
2024/02/17 00:04:48;;;;;;;;;;;;;;;;;;5013613;28;19920;-86
2024/02/17 00:07:14;;;;;;;;;;;;;;;;;;5015443;28;19963;-86
2024/02/17 00:09:40;;;;;;;;;;;;;;;;;;5002308;28;19909;-86
2024/02/17 00:12:06;;;;;;;;;;;;;;;;;;5012075;28;20423;-86
2024/02/17 00:14:34;;;;;;;;;;;;;;;;;;5011090;28;19910;-86
2024/02/17 00:17:00;;;;;;;;;;;;;;;;;;5006281;28;19918;-86
2024/02/17 00:19:25;;;;;;;;;;;;;;;;;;5012027;28;19928;-87
2024/02/17 00:21:51;;;;;;;;;;;;;;;;;;5002284;28;19914;-85
2024/02/17 00:24:17;;;;;;;;;;;;;;;;;;5013669;28;20063;-86
2024/02/17 00:26:43;;;;;;;;;;;;;;;;;;5013729;28;20803;-86
2024/02/17 00:29:09;;;;;;;;;;;;;;;;;;5013484;28;19914;-86
2024/02/17 00:31:35;;;;;;;;;;;;;;;;;;5012218;28;19936;-86
2024/02/17 00:34:01;;;;;;;;;;;;;;;;;;5012526;28;19989;-86
2024/02/17 00:36:26;;;;;;;;;;;;;;;;;;5012392;28;19960;-86
2024/02/17 00:38:52;;;;;;;;;;;;;;;;;;5023370;28;19917;-87
2024/02/17 00:41:18;;;;;;;;;;;;;;;;;;5011887;28;19968;-86
2024/02/17 00:43:44;;;;;;;;;;;;;;;;;;5004135;28;19910;-88
2024/02/17 00:46:10;;;;;;;;;;;;;;;;;;5000796;28;19944;-86
2024/02/17 00:48:36;;;;;;;;;;;;;;;;;;5012773;28;20383;-86
2024/02/17 00:51:02;;;;;;;;;;;;;;;;;;5012681;28;20602;-86
2024/02/17 00:53:28;;;;;;;;;;;;;;;;;;5020134;28;19921;-86
2024/02/17 00:55:53;;;;;;;;;;;;;;;;;;5013634;28;19913;-86
2024/02/17 00:58:19;;;;;;;;;;;;;;;;;;5013670;28;19913;-85
2024/02/17 01:00:45;;;;;;;;;;;;;;;;;;5013010;28;19996;-87
2024/02/17 01:03:11;;;;;;;;;;;;;;;;;;5014647;28;19914;-88
2024/02/17 01:05:38;;;;;;;;;;;;;;;;;;5014640;28;19913;-87
2024/02/17 01:08:04;;;;;;;;;;;;;;;;;;5011149;28;19944;-87
2024/02/17 01:10:30;;;;;;;;;;;;;;;;;;5010893;28;19945;-87
2024/02/17 01:12:56;;;;;;;;;;;;;;;;;;5012559;28;20016;-87
2024/02/17 01:15:22;;;;;;;;;;;;;;;;;;5011355;28;19964;-87
2024/02/17 01:17:48;;;;;;;;;;;;;;;;;;5010261;28;19952;-87
2024/02/17 01:20:14;;;;;;;;;;;;;;;;;;5010746;28;19914;-86
2024/02/17 01:22:40;;;;;;;;;;;;;;;;;;5007972;28;19918;-87
2024/02/17 01:25:07;;;;;;;;;;;;;;;;;;5002588;28;19913;-87
2024/02/17 01:27:32;;;;;;;;;;;;;;;;;;5029468;28;19918;-88
2024/02/17 01:29:58;;;;;;;;;;;;;;;;;;5013435;28;19976;-86
2024/02/17 01:32:24;;;;;;;;;;;;;;;;;;5008288;28;19918;-87
2024/02/17 01:34:50;;;;;;;;;;;;;;;;;;5011833;28;19921;-87
2024/02/17 01:37:17;;;;;;;;;;;;;;;;;;5008301;28;19944;-87
2024/02/17 01:39:44;;;;;;;;;;;;;;;;;;5012545;28;19914;-86
2024/02/17 01:42:10;;;;;;;;;;;;;;;;;;5010245;28;20382;-87
2024/02/17 01:44:36;;;;;;;;;;;;;;;;;;5010884;28;20291;-88
2024/02/17 01:47:02;;;;;;;;;;;;;;;;;;5015127;28;19913;-87
2024/02/17 01:49:28;;;;;;;;;;;;;;;;;;5011223;28;20307;-86
2024/02/17 01:51:54;;;;;;;;;;;;;;;;;;5008732;28;20005;-86
2024/02/17 01:54:20;;;;;;;;;;;;;;;;;;5013995;28;19921;-88
2024/02/17 01:56:45;;;;;;;;;;;;;;;;;;5008598;28;19910;-86
2024/02/17 01:59:11;;;;;;;;;;;;;;;;;;5012616;28;19913;-86
2024/02/17 02:01:37;;;;;;;;;;;;;;;;;;5010697;28;20122;-86
2024/02/17 02:04:03;;;;;;;;;;;;;;;;;;5008775;28;19981;-87
2024/02/17 02:06:30;;;;;;;;;;;;;;;;;;5011931;28;19914;-86
2024/02/17 02:08:56;;;;;;;;;;;;;;;;;;5011966;28;19914;-86
2024/02/17 02:11:21;;;;;;;;;;;;;;;;;;5012116;28;19909;-87
2024/02/17 02:13:47;;;;;;;;;;;;;;;;;;5010772;28;19918;-88
2024/02/17 02:16:14;;;;;;;;;;;;;;;;;;5011719;28;19936;-86
2024/02/17 02:18:40;;;;;;;;;;;;;;;;;;5006631;28;19918;-87
2024/02/17 02:21:06;;;;;;;;;;;;;;;;;;5010243;28;19917;-86
2024/02/17 02:23:32;;;;;;;;;;;;;;;;;;5012132;28;19910;-86
2024/02/17 02:25:58;;;;;;;;;;;;;;;;;;5011728;28;19914;-87
2024/02/17 02:28:23;;;;;;;;;;;;;;;;;;5012032;28;19909;-86
2024/02/17 02:30:52;;;;;;;;;;;;;;;;;;5011136;28;20396;-86
2024/02/17 02:33:18;;;;;;;;;;;;;;;;;;5010534;28;20428;-86
2024/02/17 02:35:45;;;;;;;;;;;;;;;;;;5010729;28;19914;-87
2024/02/17 02:38:11;;;;;;;;;;;;;;;;;;5011599;28;19910;-86
2024/02/17 02:40:37;;;;;;;;;;;;;;;;;;5008837;28;20458;-86
2024/02/17 02:43:02;;;;;;;;;;;;;;;;;;5011759;28;19914;-87
2024/02/17 02:45:30;;;;;;;;;;;;;;;;;;5010963;28;19968;-85
2024/02/17 02:47:56;;;;;;;;;;;;;;;;;;5003862;28;20412;-86
2024/02/17 02:50:22;;;;;;;;;;;;;;;;;;5010788;28;20008;-86
2024/02/17 02:52:48;;;;;;;;;;;;;;;;;;5007783;28;19926;-86
2024/02/17 02:55:14;;;;;;;;;;;;;;;;;;5011479;28;20004;-86
2024/02/17 02:57:40;;;;;;;;;;;;;;;;;;5005564;28;19921;-86
2024/02/17 03:00:06;;;;;;;;;;;;;;;;;;5010203;28;20007;-85
2024/02/17 03:02:32;;;;;;;;;;;;;;;;;;5010834;28;20388;-86
2024/02/17 03:04:57;;;;;;;;;;;;;;;;;;5008862;28;19918;-86
2024/02/17 03:07:23;;;;;;;;;;;;;;;;;;5018461;28;19914;-86
2024/02/17 03:09:49;;;;;;;;;;;;;;;;;;5009950;28;20407;-86
2024/02/17 03:12:15;;;;;;;;;;;;;;;;;;5007720;28;20566;-86
2024/02/17 03:14:42;;;;;;;;;;;;;;;;;;5008865;28;20296;-86
2024/02/17 03:17:07;;;;;;;;;;;;;;;;;;5009573;28;19917;-86
2024/02/17 03:19:33;;;;;;;;;;;;;;;;;;5008246;28;19920;-86
2024/02/17 03:21:59;;;;;;;;;;;;;;;;;;5009216;28;19952;-86
2024/02/17 03:24:25;;;;;;;;;;;;;;;;;;5010234;28;19910;-85
2024/02/17 03:26:52;;;;;;;;;;;;;;;;;;4999671;28;19921;-86
2024/02/17 03:29:18;;;;;;;;;;;;;;;;;;5008237;28;19920;-87
2024/02/17 03:31:46;;;;;;;;;;;;;;;;;;5008076;28;19917;-86
2024/02/17 03:34:13;;;;;;;;;;;;;;;;;;5005282;28;19949;-85
2024/02/17 03:36:39;;;;;;;;;;;;;;;;;;5010921;28;19914;-85
2024/02/17 03:39:09;;;;;;;;;;;;;;;;;;5014374;28;19916;-86
2024/02/17 03:41:34;;;;;;;;;;;;;;;;;;5008829;28;20013;-86
2024/02/17 03:44:00;;;;;;;;;;;;;;;;;;5011881;28;20008;-87
2024/02/17 03:46:26;;;;;;;;;;;;;;;;;;5013568;28;19909;-85
2024/02/17 03:48:52;;;;;;;;;;;;;;;;;;5008355;28;19921;-86
2024/02/17 03:51:18;;;;;;;;;;;;;;;;;;5005049;28;19953;-86
2024/02/17 03:53:44;;;;;;;;;;;;;;;;;;5008005;28;20335;-86
2024/02/17 03:56:10;;;;;;;;;;;;;;;;;;5002245;28;19914;-86
2024/02/17 03:58:36;;;;;;;;;;;;;;;;;;5008619;28;19959;-87
2024/02/17 04:01:02;;;;;;;;;;;;;;;;;;5002072;28;20220;-86
2024/02/17 04:03:29;;;;;;;;;;;;;;;;;;5009853;28;19913;-86
2024/02/17 04:05:55;;;;;;;;;;;;;;;;;;5008918;28;19914;-86
2024/02/17 04:08:21;;;;;;;;;;;;;;;;;;5002440;28;19918;-86
2024/02/17 04:10:47;;;;;;;;;;;;;;;;;;5009297;28;19928;-87
2024/02/17 04:13:13;;;;;;;;;;;;;;;;;;5005268;28;20388;-86
2024/02/17 04:15:38;;;;;;;;;;;;;;;;;;5011979;28;20273;-86
2024/02/17 04:18:06;;;;;;;;;;;;;;;;;;5004018;28;19936;-86
2024/02/17 04:20:32;;;;;;;;;;;;;;;;;;5006000;28;20146;-86
2024/02/17 04:22:58;;;;;;;;;;;;;;;;;;5008360;28;19917;-86
2024/02/17 04:25:24;;;;;;;;;;;;;;;;;;5009631;28;19921;-86
2024/02/17 04:27:50;;;;;;;;;;;;;;;;;;5009437;28;20359;-85
2024/02/17 04:30:16;;;;;;;;;;;;;;;;;;5006173;28;19975;-87
2024/02/17 04:32:41;;;;;;;;;;;;;;;;;;5011884;28;19913;-86
2024/02/17 04:35:07;;;;;;;;;;;;;;;;;;5007308;28;19960;-87
2024/02/17 04:37:33;;;;;;;;;;;;;;;;;;5006258;28;19917;-85
2024/02/17 04:40:00;;;;;;;;;;;;;;;;;;5010429;28;19935;-87
2024/02/17 04:42:26;;;;;;;;;;;;;;;;;;5009291;28;19921;-87
2024/02/17 04:44:53;;;;;;;;;;;;;;;;;;5008988;28;20012;-86
2024/02/17 04:47:18;;;;;;;;;;;;;;;;;;5008866;28;19921;-86
2024/02/17 04:49:44;;;;;;;;;;;;;;;;;;5000171;28;20315;-86
2024/02/17 04:52:10;;;;;;;;;;;;;;;;;;5007019;28;20426;-87
2024/02/17 04:54:36;;;;;;;;;;;;;;;;;;5008534;28;19913;-86
2024/02/17 04:57:02;;;;;;;;;;;;;;;;;;5008612;28;19920;-87
2024/02/17 04:59:29;;;;;;;;;;;;;;;;;;5013177;28;19913;-87
2024/02/17 05:01:54;;;;;;;;;;;;;;;;;;5007746;28;19918;-86
2024/02/17 05:04:20;;;;;;;;;;;;;;;;;;5012976;28;19940;-86
2024/02/17 05:06:46;;;;;;;;;;;;;;;;;;5011773;28;20024;-85
2024/02/17 05:09:12;;;;;;;;;;;;;;;;;;5000829;28;19972;-85
2024/02/17 05:11:40;;;;;;;;;;;;;;;;;;5008964;28;19949;-86
2024/02/17 05:14:06;;;;;;;;;;;;;;;;;;5007780;28;20008;-87
2024/02/17 05:16:32;;;;;;;;;;;;;;;;;;5008427;28;20401;-86
2024/02/17 05:18:58;;;;;;;;;;;;;;;;;;5010386;28;19928;-86
2024/02/17 05:21:25;;;;;;;;;;;;;;;;;;5009792;28;19913;-85
2024/02/17 05:23:51;;;;;;;;;;;;;;;;;;5010292;28;19932;-87
2024/02/17 05:26:17;;;;;;;;;;;;;;;;;;5010174;28;19921;-85
2024/02/17 05:28:43;;;;;;;;;;;;;;;;;;5011143;28;19921;-85
2024/02/17 05:31:09;;;;;;;;;;;;;;;;;;5010604;28;19979;-87
2024/02/17 05:33:36;;;;;;;;;;;;;;;;;;5010210;28;20028;-85
2024/02/17 05:36:02;;;;;;;;;;;;;;;;;;5012397;28;19940;-87
2024/02/17 05:38:28;;;;;;;;;;;;;;;;;;5011622;28;20081;-85
2024/02/17 05:40:54;;;;;;;;;;;;;;;;;;5013280;28;19971;-86
2024/02/17 05:43:20;;;;;;;;;;;;;;;;;;5005270;28;19914;-86
2024/02/17 05:45:47;;;;;;;;;;;;;;;;;;5008530;28;19914;-86
2024/02/17 05:48:13;;;;;;;;;;;;;;;;;;5012211;28;19917;-86
2024/02/17 05:50:39;;;;;;;;;;;;;;;;;;5009934;28;20019;-87
2024/02/17 05:53:05;;;;;;;;;;;;;;;;;;5006932;28;20436;-86
2024/02/17 05:55:31;;;;;;;;;;;;;;;;;;5009481;28;20283;-86
2024/02/17 05:57:57;;;;;;;;;;;;;;;;;;5010119;28;19917;-86
2024/02/17 06:00:23;;;;;;;;;;;;;;;;;;5011010;28;20485;-86
2024/02/17 06:02:49;;;;;;;;;;;;;;;;;;5011973;28;20340;-86
2024/02/17 06:05:14;;;;;;;;;;;;;;;;;;5010213;28;20369;-86
2024/02/17 06:07:40;;;;;;;;;;;;;;;;;;5006501;28;20097;-86
2024/02/17 06:10:06;;;;;;;;;;;;;;;;;;5008012;28;19913;-86
2024/02/17 06:12:32;;;;;;;;;;;;;;;;;;5020031;28;19926;-86
2024/02/17 06:14:58;;;;;;;;;;;;;;;;;;5009772;28;19921;-86
2024/02/17 06:17:27;;;;;;;;;;;;;;;;;;5007608;28;19913;-84
2024/02/17 06:22:37;;;;;;;;;;;;;;;;;;5005047;28;19925;-86
2024/02/17 06:25:04;;;;;;;;;;;;;;;;;;5009817;28;19929;-85
2024/02/17 06:27:30;;;;;;;;;;;;;;;;;;5012273;28;19913;-86
2024/02/17 06:29:56;;;;;;;;;;;;;;;;;;4994963;28;20392;-85
2024/02/17 06:32:21;;;;;;;;;;;;;;;;;;5009817;28;20543;-86
2024/02/17 06:34:48;;;;;;;;;;;;;;;;;;5008735;28;19913;-86
2024/02/17 06:37:15;;;;;;;;;;;;;;;;;;5011865;28;19943;-85
2024/02/17 06:39:41;;;;;;;;;;;;;;;;;;5010327;28;20395;-86
2024/02/17 06:42:07;;;;;;;;;;;;;;;;;;5013046;28;19917;-86
2024/02/17 06:44:33;;;;;;;;;;;;;;;;;;5010369;28;19936;-85
2024/02/17 06:46:59;;;;;;;;;;;;;;;;;;5009339;28;20304;-86
2024/02/17 06:49:25;;;;;;;;;;;;;;;;;;5012819;28;19917;-86
2024/02/17 06:51:50;;;;;;;;;;;;;;;;;;5010692;28;20205;-88
2024/02/17 06:54:16;;;;;;;;;;;;;;;;;;5012977;28;19917;-86
2024/02/17 06:56:42;;;;;;;;;;;;;;;;;;5009980;28;20432;-86
2024/02/17 06:59:08;;;;;;;;;;;;;;;;;;5003249;28;20301;-85
2024/02/17 07:01:34;;;;;;;;;;;;;;;;;;5006956;28;19917;-86
2024/02/17 07:04:00;;;;;;;;;;;;;;;;;;5011965;28;20411;-85
2024/02/17 07:06:26;;;;;;;;;;;;;;;;;;5004377;28;19914;-85
2024/02/17 07:08:51;;;;;;;;;;;;;;;;;;5004287;28;19936;-85
2024/02/17 07:11:18;;;;;;;;;;;;;;;;;;5010471;28;20300;-85
2024/02/17 07:13:44;;;;;;;;;;;;;;;;;;5011057;28;20284;-85
2024/02/17 07:16:10;;;;;;;;;;;;;;;;;;5004699;28;19925;-85
2024/02/17 07:18:37;;;;;;;;;;;;;;;;;;5008180;28;19921;-85
2024/02/17 07:21:03;;;;;;;;;;;;;;;;;;5008646;28;19914;-85
2024/02/17 07:23:30;;;;;;;;;;;;;;;;;;5007531;28;19921;-85
2024/02/17 07:25:56;;;;;;;;;;;;;;;;;;5000183;28;19918;-87
2024/02/17 07:28:22;;;;;;;;;;;;;;;;;;5011249;28;19913;-90
2024/02/17 07:30:48;;;;;;;;;;;;;;;;;;5005977;28;20016;-84
2024/02/17 07:33:16;;;;;;;;;;;;;;;;;;5003576;28;19921;-85
2024/02/17 07:35:44;;;;;;;;;;;;;;;;;;5007732;28;20008;-84
2024/02/17 07:38:10;;;;;;;;;;;;;;;;;;5009804;28;19914;-87
2024/02/17 07:40:36;;;;;;;;;;;;;;;;;;4998041;28;19976;-87
2024/02/17 07:43:02;;;;;;;;;;;;;;;;;;5007910;28;19918;-86
2024/02/17 07:45:28;;;;;;;;;;;;;;;;;;5003862;28;19949;-86
2024/02/17 07:47:54;;;;;;;;;;;;;;;;;;5006033;28;19967;-85
2024/02/17 07:50:20;;;;;;;;;;;;;;;;;;5006795;28;19917;-84
2024/02/17 07:52:45;;;;;;;;;;;;;;;;;;5006795;28;20387;-85
2024/02/17 07:55:11;;;;;;;;;;;;;;;;;;5012269;28;20318;-85
2024/02/17 07:57:37;;;;;;;;;;;;;;;;;;5012908;28;19955;-87
2024/02/17 08:00:03;;;;;;;;;;;;;;;;;;5008051;28;19960;-86
2024/02/17 08:02:29;;;;;;;;;;;;;;;;;;5008445;28;20442;-87
2024/02/17 08:04:56;;;;;;;;;;;;;;;;;;5004487;28;20380;-85
2024/02/17 08:07:22;;;;;;;;;;;;;;;;;;5009251;28;19936;-85
2024/02/17 08:09:48;;;;;;;;;;;;;;;;;;5010033;28;19910;-88
2024/02/17 08:12:14;;;;;;;;;;;;;;;;;;5009206;28;19917;-86
2024/02/17 08:14:43;;;;;;;;;;;;;;;;;;5002686;28;19941;-85
2024/02/17 08:17:09;;;;;;;;;;;;;;;;;;5006455;28;19918;-87
2024/02/17 08:19:35;;;;;;;;;;;;;;;;;;5008011;28;19945;-85
2024/02/17 08:22:01;;;;;;;;;;;;;;;;;;5007619;28;19988;-86
2024/02/17 08:24:27;;;;;;;;;;;;;;;;;;5009000;28;20052;-87
2024/02/17 08:26:53;;;;;;;;;;;;;;;;;;5012839;28;19917;-88
2024/02/17 08:29:20;;;;;;;;;;;;;;;;;;5006363;28;19920;-87
2024/02/17 08:31:46;;;;;;;;;;;;;;;;;;5008724;28;19936;-87
2024/02/17 08:34:12;;;;;;;;;;;;;;;;;;5015377;28;19913;-86
2024/02/17 08:36:38;;;;;;;;;;;;;;;;;;5019717;28;19919;-88
2024/02/17 08:39:04;;;;;;;;;;;;;;;;;;5014669;28;19920;-89
2024/02/17 08:41:30;;;;;;;;;;;;;;;;;;5005060;28;19914;-86
2024/02/17 08:43:56;;;;;;;;;;;;;;;;;;5014818;28;19921;-88
2024/02/17 08:46:25;;;;;;;;;;;;;;;;;;5014971;28;20015;-88
2024/02/17 08:48:51;;;;;;;;;;;;;;;;;;5008366;28;19925;-87
2024/02/17 08:51:17;;;;;;;;;;;;;;;;;;5013863;28;19971;-89
2024/02/17 08:53:43;;;;;;;;;;;;;;;;;;5014975;28;19929;-87
2024/02/17 08:56:12;;;;;;;;;;;;;;;;;;5016786;28;19921;-88
2024/02/17 08:58:38;;;;;;;;;;;;;;;;;;5014094;28;19941;-90
2024/02/17 09:01:05;;;;;;;;;;;;;;;;;;5011736;28;20364;-88
2024/02/17 09:03:30;;;;;;;;;;;;;;;;;;5006597;28;20327;-86
2024/02/17 09:05:57;;;;;;;;;;;;;;;;;;4998898;28;19921;-87
2024/02/17 09:08:23;;;;;;;;;;;;;;;;;;5015496;28;19914;-86
2024/02/17 09:10:49;;;;;;;;;;;;;;;;;;5011774;28;19914;-84
2024/02/17 09:13:15;;;;;;;;;;;;;;;;;;5008609;28;19917;-87
2024/02/17 09:15:41;;;;;;;;;;;;;;;;;;5013042;28;19924;-91
2024/02/17 09:18:07;;;;;;;;;;;;;;;;;;5011942;28;19910;-85
2024/02/17 09:20:35;;;;;;;;;;;;;;;;;;5009930;28;19940;-84
2024/02/17 09:23:03;;;;;;;;;;;;;;;;;;5010021;28;19959;-86
2024/02/17 09:25:28;;;;;;;;;;;;;;;;;;5005145;28;19914;-85
2024/02/17 09:27:54;;;;;;;;;;;;;;;;;;5007236;28;20001;-88
2024/02/17 09:30:20;;;;;;;;;;;;;;;;;;5011821;28;19968;-87
2024/02/17 09:32:46;;;;;;;;;;;;;;;;;;5017406;28;20431;-87
2024/02/17 09:35:12;;;;;;;;;;;;;;;;;;5011909;28;20285;-88
2024/02/17 09:37:43;;;;;;;;;;;;;;;;;;5017962;28;19923;-86
2024/02/17 09:40:09;;;;;;;;;;;;;;;;;;5013279;28;19945;-84
2024/02/17 09:42:35;;;;;;;;;;;;;;;;;;5014456;28;19964;-87
2024/02/17 09:45:01;;;;;;;;;;;;;;;;;;5006768;28;19924;-87
2024/02/17 09:47:27;;;;;;;;;;;;;;;;;;5003875;28;20352;-86
2024/02/17 09:49:56;;;;;;;;;;;;;;;;;;5007391;28;19921;-89
2024/02/17 09:52:21;;;;;;;;;;;;;;;;;;5012439;28;19944;-87
2024/02/17 09:54:48;;;;;;;;;;;;;;;;;;5012438;28;19914;-87
2024/02/17 09:57:15;;;;;;;;;;;;;;;;;;5008033;28;20392;-87
2024/02/17 09:59:41;;;;;;;;;;;;;;;;;;5005363;28;19921;-87
2024/02/17 10:02:06;;;;;;;;;;;;;;;;;;5007288;28;19917;-86
2024/02/17 10:04:32;;;;;;;;;;;;;;;;;;5011056;28;19964;-88
2024/02/17 10:06:59;;;;;;;;;;;;;;;;;;5011706;28;19960;-89
2024/02/17 10:09:27;;;;;;;;;;;;;;;;;;5012851;28;19913;-88
2024/02/17 10:11:52;;;;;;;;;;;;;;;;;;5006165;28;19913;-85
2024/02/17 10:14:18;;;;;;;;;;;;;;;;;;5006471;28;19921;-88
2024/02/17 10:16:44;;;;;;;;;;;;;;;;;;5009784;28;19953;-91
2024/02/17 10:19:10;;;;;;;;;;;;;;;;;;5011969;28;20344;-91
2024/02/17 10:21:36;;;;;;;;;;;;;;;;;;5023292;28;19913;-91
2024/02/17 10:24:02;;;;;;;;;;;;;;;;;;5014061;28;19913;-90
2024/02/17 10:26:27;;;;;;;;;;;;;;;;;;5015274;28;19952;-90
2024/02/17 10:28:53;;;;;;;;;;;;;;;;;;5017179;28;19920;-91
2024/02/17 10:31:19;;;;;;;;;;;;;;;;;;5019521;28;20017;-88
2024/02/17 10:33:45;;;;;;;;;;;;;;;;;;5021714;28;20052;-88
2024/02/17 10:36:12;;;;;;;;;;;;;;;;;;5018007;28;19928;-88
2024/02/17 10:38:38;;;;;;;;;;;;;;;;;;5018725;28;19966;-93
2024/02/17 10:41:04;;;;;;;;;;;;;;;;;;5014888;28;19954;-89
2024/02/17 10:43:31;;;;;;;;;;;;;;;;;;5023789;28;19913;-90
2024/02/17 10:45:56;;;;;;;;;;;;;;;;;;5013115;28;19913;-92
2024/02/17 10:48:22;;;;;;;;;;;;;;;;;;4998552;28;19917;-91
2024/02/17 10:50:50;;;;;;;;;;;;;;;;;;5015317;28;19917;-87
2024/02/17 10:53:16;;;;;;;;;;;;;;;;;;5026315;28;19963;-89
2024/02/17 10:55:42;;;;;;;;;;;;;;;;;;5021003;28;19913;-91
2024/02/17 10:58:10;;;;;;;;;;;;;;;;;;5021009;28;19910;-92
2024/02/17 11:00:36;;;;;;;;;;;;;;;;;;5024319;28;19913;-88
2024/02/17 11:03:02;;;;;;;;;;;;;;;;;;5002206;28;19922;-88
2024/02/17 11:05:28;;;;;;;;;;;;;;;;;;5007172;28;19913;-91
2024/02/17 11:07:54;;;;;;;;;;;;;;;;;;5011712;28;20272;-87
2024/02/17 11:10:20;;;;;;;;;;;;;;;;;;5014012;28;19929;-91
2024/02/17 11:12:46;;;;;;;;;;;;;;;;;;5023842;28;20364;-86
2024/02/17 11:15:11;;;;;;;;;;;;;;;;;;5008142;28;19917;-85
2024/02/17 11:17:40;;;;;;;;;;;;;;;;;;5014797;28;19914;-90
2024/02/17 11:20:09;;;;;;;;;;;;;;;;;;5013029;28;19924;-90
2024/02/17 11:22:34;;;;;;;;;;;;;;;;;;5011742;28;19917;-91
2024/02/17 11:25:01;;;;;;;;;;;;;;;;;;5009511;28;20000;-92
2024/02/17 11:27:26;;;;;;;;;;;;;;;;;;5019112;28;19920;-90
2024/02/17 11:29:52;;;;;;;;;;;;;;;;;;5020725;28;19913;-91
2024/02/17 11:32:18;;;;;;;;;;;;;;;;;;5012753;28;20515;-91
2024/02/17 11:34:46;;;;;;;;;;;;;;;;;;5007705;28;22906;-91
2024/02/17 11:37:12;;;;;;;;;;;;;;;;;;5008271;28;19972;-92
2024/02/17 11:39:38;;;;;;;;;;;;;;;;;;5015252;28;19914;-91
2024/02/17 11:42:04;;;;;;;;;;;;;;;;;;5015631;28;19928;-91
2024/02/17 11:44:30;;;;;;;;;;;;;;;;;;5007812;28;19914;-88
2024/02/17 11:46:55;;;;;;;;;;;;;;;;;;5002307;28;19941;-90
2024/02/17 11:49:21;;;;;;;;;;;;;;;;;;5008421;28;19964;-89
2024/02/17 11:51:47;;;;;;;;;;;;;;;;;;5002202;28;19923;-90
2024/02/17 11:54:13;;;;;;;;;;;;;;;;;;5005100;28;19925;-87
2024/02/17 11:56:42;;;;;;;;;;;;;;;;;;5000217;28;19929;-88
2024/02/17 11:59:08;;;;;;;;;;;;;;;;;;5002795;28;19949;-87
2024/02/17 12:01:34;;;;;;;;;;;;;;;;;;5006315;28;20418;-91
2024/02/17 12:03:59;;;;;;;;;;;;;;;;;;5005682;28;20360;-91
2024/02/17 12:06:25;;;;;;;;;;;;;;;;;;5009851;28;19913;-91
2024/02/17 12:08:51;;;;;;;;;;;;;;;;;;5002999;28;19921;-91
2024/02/17 12:11:19;;;;;;;;;;;;;;;;;;5007396;28;19917;-93
2024/02/17 12:13:44;;;;;;;;;;;;;;;;;;5016619;28;19925;-94
2024/02/17 12:16:16;;;;;;;;;;;;;;;;;;5017460;28;19977;-94
2024/02/17 12:18:42;;;;;;;;;;;;;;;;;;5009827;28;19973;-91
2024/02/17 12:21:10;;;;;;;;;;;;;;;;;;5006654;28;20045;-89
2024/02/17 12:23:36;;;;;;;;;;;;;;;;;;5006425;28;19909;-92
2024/02/17 12:26:01;;;;;;;;;;;;;;;;;;5014023;28;19945;-93
2024/02/17 12:28:27;;;;;;;;;;;;;;;;;;5003625;28;20380;-87
2024/02/17 12:30:53;;;;;;;;;;;;;;;;;;5002019;28;19964;-89
2024/02/17 12:33:21;;;;;;;;;;;;;;;;;;5001225;28;19918;-90
2024/02/17 12:35:50;;;;;;;;;;;;;;;;;;5002020;28;19921;-91
2024/02/17 12:38:17;;;;;;;;;;;;;;;;;;5004696;28;19917;-90
2024/02/17 12:40:44;;;;;;;;;;;;;;;;;;5002319;28;19921;-87
2024/02/17 12:43:10;;;;;;;;;;;;;;;;;;5005053;28;19901;-91
2024/02/17 12:45:36;;;;;;;;;;;;;;;;;;5000634;28;19914;-91
2024/02/17 12:48:02;;;;;;;;;;;;;;;;;;4997636;28;19996;-85
2024/02/17 12:50:28;;;;;;;;;;;;;;;;;;4999604;28;19917;-84
2024/02/17 12:52:54;;;;;;;;;;;;;;;;;;4999008;28;19936;-86
2024/02/17 12:55:20;;;;;;;;;;;;;;;;;;4997784;28;19929;-85
2024/02/17 12:57:46;;;;;;;;;;;;;;;;;;4997726;28;19921;-84
2024/02/17 13:00:12;;;;;;;;;;;;;;;;;;4996873;28;20033;-83
2024/02/17 13:02:38;;;;;;;;;;;;;;;;;;4996160;28;20288;-83
2024/02/17 13:05:03;;;;;;;;;;;;;;;;;;5000010;28;19921;-85
2024/02/17 13:07:29;;;;;;;;;;;;;;;;;;4997460;28;20377;-84
2024/02/17 13:09:55;;;;;;;;;;;;;;;;;;4996907;28;20470;-82
2024/02/17 13:12:21;;;;;;;;;;;;;;;;;;4998234;28;19925;-83
2024/02/17 13:14:47;;;;;;;;;;;;;;;;;;4995327;28;19925;-86
2024/02/17 13:17:13;;;;;;;;;;;;;;;;;;4999290;28;19922;-86
2024/02/17 13:19:39;;;;;;;;;;;;;;;;;;5009971;28;19920;-85
2024/02/17 13:22:05;;;;;;;;;;;;;;;;;;4999203;28;19937;-84
2024/02/17 13:24:31;;;;;;;;;;;;;;;;;;5008296;28;19924;-84
2024/02/17 13:26:57;;;;;;;;;;;;;;;;;;5009373;28;20354;-86
2024/02/17 13:29:25;;;;;;;;;;;;;;;;;;5007775;28;19963;-85
2024/02/17 13:31:51;;;;;;;;;;;;;;;;;;5002645;28;20395;-85
2024/02/17 13:34:17;;;;;;;;;;;;;;;;;;5011676;28;19996;-85
2024/02/17 13:36:43;;;;;;;;;;;;;;;;;;5014168;28;19926;-87
2024/02/17 13:39:09;;;;;;;;;;;;;;;;;;5008819;28;19917;-88
2024/02/17 13:41:38;;;;;;;;;;;;;;;;;;5011673;28;20362;-88
2024/02/17 13:44:04;;;;;;;;;;;;;;;;;;5008238;28;19925;-89
2024/02/17 13:46:30;;;;;;;;;;;;;;;;;;5002600;28;20308;-87
2024/02/17 13:48:56;;;;;;;;;;;;;;;;;;5000609;28;19921;-89
2024/02/17 13:51:22;;;;;;;;;;;;;;;;;;5004546;28;19956;-87
2024/02/17 13:53:48;;;;;;;;;;;;;;;;;;5002090;28;20139;-88
2024/02/17 13:56:13;;;;;;;;;;;;;;;;;;5002378;28;19914;-88
2024/02/17 13:58:39;;;;;;;;;;;;;;;;;;5004108;28;19917;-89
2024/02/17 14:01:05;;;;;;;;;;;;;;;;;;5004109;28;20387;-88
2024/02/17 14:03:32;;;;;;;;;;;;;;;;;;5001847;28;19917;-88
2024/02/17 14:05:59;;;;;;;;;;;;;;;;;;5002280;28;20009;-87
2024/02/17 14:08:25;;;;;;;;;;;;;;;;;;5002657;28;19922;-88
2024/02/17 14:10:51;;;;;;;;;;;;;;;;;;5002420;28;19925;-87
2024/02/17 14:13:17;;;;;;;;;;;;;;;;;;5002039;28;19921;-88
2024/02/17 14:15:42;;;;;;;;;;;;;;;;;;5002155;28;19941;-88
2024/02/17 14:18:08;;;;;;;;;;;;;;;;;;5001594;28;19913;-87
2024/02/17 14:20:34;;;;;;;;;;;;;;;;;;4994302;28;19920;-88
2024/02/17 14:23:00;;;;;;;;;;;;;;;;;;5009375;28;20526;-87
2024/02/17 14:25:26;;;;;;;;;;;;;;;;;;5010265;28;19964;-87
2024/02/17 14:27:52;;;;;;;;;;;;;;;;;;5009982;28;19945;-88
2024/02/17 14:30:22;;;;;;;;;;;;;;;;;;5007129;28;19971;-81
2024/02/17 14:32:48;;;;;;;;;;;;;;;;;;4999658;28;19921;-84
2024/02/17 14:35:14;;;;;;;;;;;;;;;;;;5008592;28;19909;-89
2024/02/17 14:37:40;;;;;;;;;;;;;;;;;;5008429;28;19975;-87
2024/02/17 14:40:06;;;;;;;;;;;;;;;;;;5011869;28;19919;-88
2024/02/17 14:42:32;;;;;;;;;;;;;;;;;;5010495;28;19918;-91
2024/02/17 14:44:58;;;;;;;;;;;;;;;;;;5011587;28;19909;-84
2024/02/17 14:47:24;;;;;;;;;;;;;;;;;;5009854;28;20364;-87
2024/02/17 14:49:50;;;;;;;;;;;;;;;;;;5005964;28;19933;-88
2024/02/17 14:52:15;;;;;;;;;;;;;;;;;;5005856;28;19925;-87
2024/02/17 14:54:42;;;;;;;;;;;;;;;;;;5006237;28;19914;-87
2024/02/17 14:57:07;;;;;;;;;;;;;;;;;;5007986;28;19914;-88
2024/02/17 14:59:33;;;;;;;;;;;;;;;;;;5013353;28;19913;-86
2024/02/17 15:01:59;;;;;;;;;;;;;;;;;;5002954;28;19921;-85
2024/02/17 15:04:25;;;;;;;;;;;;;;;;;;5015002;28;20382;-88
2024/02/17 15:06:51;;;;;;;;;;;;;;;;;;5003000;28;19913;-85
2024/02/17 15:09:19;;;;;;;;;;;;;;;;;;5012764;28;19917;-88
2024/02/17 15:11:46;;;;;;;;;;;;;;;;;;5011410;28;19925;-85
2024/02/17 15:14:12;;;;;;;;;;;;;;;;;;5007790;28;19932;-86
2024/02/17 15:16:41;;;;;;;;;;;;;;;;;;4998857;28;19918;-84
2024/02/17 15:19:07;;;;;;;;;;;;;;;;;;5004934;28;19972;-85
2024/02/17 15:21:33;;;;;;;;;;;;;;;;;;5014840;28;19921;-84
2024/02/17 15:23:59;;;;;;;;;;;;;;;;;;5002548;28;19965;-85
2024/02/17 15:26:26;;;;;;;;;;;;;;;;;;5007789;28;19918;-88
2024/02/17 15:28:51;;;;;;;;;;;;;;;;;;5015784;28;19964;-88
2024/02/17 15:31:19;;;;;;;;;;;;;;;;;;5007289;28;19921;-88
2024/02/17 15:33:47;;;;;;;;;;;;;;;;;;5004350;28;20363;-87
2024/02/17 15:36:16;;;;;;;;;;;;;;;;;;5011617;28;20348;-90
2024/02/17 15:39:02;;;;;;;;;;;;;;;;;;4997821;28;20433;-90
2024/02/17 15:41:34;;;;;;;;;;;;;;;;;;5003138;28;20001;-86
2024/02/17 15:43:59;;;;;;;;;;;;;;;;;;5001216;28;19918;-88
2024/02/17 15:46:25;;;;;;;;;;;;;;;;;;5000676;28;19910;-81
2024/02/17 15:48:53;;;;;;;;;;;;;;;;;;5003754;28;19918;-81
2024/02/17 15:51:21;;;;;;;;;;;;;;;;;;5000187;28;19917;-85
2024/02/17 15:53:47;;;;;;;;;;;;;;;;;;5001410;28;20365;-84
2024/02/17 15:56:16;;;;;;;;;;;;;;;;;;5007366;28;19924;-84
2024/02/17 15:58:42;;;;;;;;;;;;;;;;;;5008577;28;19913;-84
2024/02/17 16:01:07;;;;;;;;;;;;;;;;;;5006833;28;20273;-85
2024/02/17 16:03:34;;;;;;;;;;;;;;;;;;5009269;28;19971;-85
2024/02/17 16:06:04;;;;;;;;;;;;;;;;;;5003100;28;20439;-84
2024/02/17 16:08:30;;;;;;;;;;;;;;;;;;4995754;28;19956;-83
2024/02/17 16:10:56;;;;;;;;;;;;;;;;;;4996712;28;20163;-89
2024/02/17 16:13:22;;;;;;;;;;;;;;;;;;5026428;28;19973;-90
2024/02/17 16:15:48;;;;;;;;;;;;;;;;;;5006404;28;19914;-91
2024/02/17 16:18:14;;;;;;;;;;;;;;;;;;5016577;28;20064;-91
2024/02/17 16:20:40;;;;;;;;;;;;;;;;;;5002191;28;19988;-93
2024/02/17 16:23:06;;;;;;;;;;;;;;;;;;5007431;28;19914;-91
2024/02/17 16:25:32;;;;;;;;;;;;;;;;;;5002853;28;19914;-91
2024/02/17 16:27:58;;;;;;;;;;;;;;;;;;5004180;28;19981;-91
2024/02/17 16:30:24;;;;;;;;;;;;;;;;;;5003317;28;19975;-89
2024/02/17 16:32:50;;;;;;;;;;;;;;;;;;5003293;28;20309;-90
2024/02/17 16:35:16;;;;;;;;;;;;;;;;;;4999012;28;19917;-85
2024/02/17 16:37:42;;;;;;;;;;;;;;;;;;5005800;28;19913;-91
2024/02/17 16:40:08;;;;;;;;;;;;;;;;;;5012480;28;19920;-91
2024/02/17 16:42:36;;;;;;;;;;;;;;;;;;5003095;28;22124;-87